sensor_id;sensor_type;location;lat;lon;timestamp;pressure;altitude;pressure_sealevel;temperature;humidity
69784;BME280;57054;51.978;4.498;2023-07-29T00:00:42;100741.78;;;17.89;96.31
69784;BME280;57054;51.978;4.498;2023-07-29T00:03:07;100739.97;;;17.90;96.42
69784;BME280;57054;51.978;4.498;2023-07-29T00:05:33;100742.75;;;17.88;96.15
69784;BME280;57054;51.978;4.498;2023-07-29T00:07:58;100733.00;;;17.89;96.44
69784;BME280;57054;51.978;4.498;2023-07-29T00:10:24;100727.81;;;17.87;96.48
69784;BME280;57054;51.978;4.498;2023-07-29T00:12:49;100730.47;;;17.87;96.35
69784;BME280;57054;51.978;4.498;2023-07-29T00:15:15;100724.34;;;17.87;96.22
69784;BME280;57054;51.978;4.498;2023-07-29T00:17:40;100727.09;;;17.85;95.99
69784;BME280;57054;51.978;4.498;2023-07-29T00:20:06;100723.56;;;17.84;95.86
69784;BME280;57054;51.978;4.498;2023-07-29T00:22:32;100718.38;;;17.83;96.05
69784;BME280;57054;51.978;4.498;2023-07-29T00:24:57;100721.13;;;17.81;96.06
69784;BME280;57054;51.978;4.498;2023-07-29T00:27:24;100719.44;;;17.80;95.97
69784;BME280;57054;51.978;4.498;2023-07-29T00:29:50;100723.91;;;17.80;96.05
69784;BME280;57054;51.978;4.498;2023-07-29T00:32:15;100723.16;;;17.78;95.84
69784;BME280;57054;51.978;4.498;2023-07-29T00:34:41;100714.38;;;17.77;95.98
69784;BME280;57054;51.978;4.498;2023-07-29T00:37:06;100717.13;;;17.76;95.89
69784;BME280;57054;51.978;4.498;2023-07-29T00:39:32;100719.78;;;17.76;96.06
69784;BME280;57054;51.978;4.498;2023-07-29T00:41:58;100717.25;;;17.74;96.09
69784;BME280;57054;51.978;4.498;2023-07-29T00:44:24;100714.69;;;17.73;95.93
69784;BME280;57054;51.978;4.498;2023-07-29T00:46:52;100724.56;;;17.71;95.97
69784;BME280;57054;51.978;4.498;2023-07-29T00:49:19;100723.72;;;17.70;96.08
69784;BME280;57054;51.978;4.498;2023-07-29T00:51:44;100722.03;;;17.69;95.99
69784;BME280;57054;51.978;4.498;2023-07-29T00:54:10;100719.47;;;17.68;95.96
69784;BME280;57054;51.978;4.498;2023-07-29T00:56:35;100716.00;;;17.67;96.31
69784;BME280;57054;51.978;4.498;2023-07-29T00:59:01;100715.25;;;17.65;96.18
69784;BME280;57054;51.978;4.498;2023-07-29T01:01:28;100713.56;;;17.64;96.24
69784;BME280;57054;51.978;4.498;2023-07-29T01:03:54;100713.66;;;17.62;96.49
69784;BME280;57054;51.978;4.498;2023-07-29T01:09:09;100703.22;;;17.61;96.52
69784;BME280;57054;51.978;4.498;2023-07-29T01:14:38;100701.63;;;17.58;96.53
69784;BME280;57054;51.978;4.498;2023-07-29T01:17:03;100698.13;;;17.58;96.37
69784;BME280;57054;51.978;4.498;2023-07-29T01:22:19;100690.41;;;17.55;96.17
69784;BME280;57054;51.978;4.498;2023-07-29T01:24:46;100686.91;;;17.54;95.87
69784;BME280;57054;51.978;4.498;2023-07-29T01:27:12;100698.44;;;17.53;95.83
69784;BME280;57054;51.978;4.498;2023-07-29T01:29:37;100690.59;;;17.52;95.72
69784;BME280;57054;51.978;4.498;2023-07-29T01:32:21;100694.22;;;17.51;95.63
69784;BME280;57054;51.978;4.498;2023-07-29T01:35:03;100689.88;;;17.50;95.50
69784;BME280;57054;51.978;4.498;2023-07-29T01:37:35;100690.84;;;17.49;95.27
69784;BME280;57054;51.978;4.498;2023-07-29T01:40:03;100684.81;;;17.46;95.23
69784;BME280;57054;51.978;4.498;2023-07-29T01:42:31;100687.59;;;17.45;95.11
69784;BME280;57054;51.978;4.498;2023-07-29T01:44:57;100685.88;;;17.44;95.25
69784;BME280;57054;51.978;4.498;2023-07-29T01:47:22;100687.69;;;17.43;95.36
69784;BME280;57054;51.978;4.498;2023-07-29T01:49:48;100685.88;;;17.44;95.27
69784;BME280;57054;51.978;4.498;2023-07-29T01:52:13;100682.50;;;17.42;95.28
69784;BME280;57054;51.978;4.498;2023-07-29T01:54:38;100676.47;;;17.40;95.17
69784;BME280;57054;51.978;4.498;2023-07-29T01:57:04;100677.31;;;17.40;95.14
69784;BME280;57054;51.978;4.498;2023-07-29T01:59:29;100667.81;;;17.38;94.99
69784;BME280;57054;51.978;4.498;2023-07-29T02:01:54;100680.19;;;17.37;94.83
69784;BME280;57054;51.978;4.498;2023-07-29T02:04:20;100673.19;;;17.36;94.72
69784;BME280;57054;51.978;4.498;2023-07-29T02:06:45;100675.13;;;17.34;95.05
69784;BME280;57054;51.978;4.498;2023-07-29T02:09:11;100673.31;;;17.35;95.19
69784;BME280;57054;51.978;4.498;2023-07-29T02:11:36;100668.13;;;17.33;95.09
69784;BME280;57054;51.978;4.498;2023-07-29T02:14:01;100671.72;;;17.32;95.22
69784;BME280;57054;51.978;4.498;2023-07-29T02:16:27;100675.31;;;17.31;94.99
69784;BME280;57054;51.978;4.498;2023-07-29T02:18:52;100668.34;;;17.30;95.09
69784;BME280;57054;51.978;4.498;2023-07-29T02:21:18;100667.50;;;17.30;95.22
69784;BME280;57054;51.978;4.498;2023-07-29T02:23:43;100657.88;;;17.29;95.27
69784;BME280;57054;51.978;4.498;2023-07-29T02:26:08;100659.66;;;17.28;95.09
69784;BME280;57054;51.978;4.498;2023-07-29T02:28:34;100656.28;;;17.26;95.17
69784;BME280;57054;51.978;4.498;2023-07-29T02:31:15;100650.97;;;17.26;95.03
69784;BME280;57054;51.978;4.498;2023-07-29T02:33:41;100651.97;;;17.25;95.30
69784;BME280;57054;51.978;4.498;2023-07-29T02:36:07;100645.78;;;17.24;95.19
69784;BME280;57054;51.978;4.498;2023-07-29T02:38:32;100634.47;;;17.22;95.08
69784;BME280;57054;51.978;4.498;2023-07-29T02:40:57;100635.34;;;17.23;95.27
69784;BME280;57054;51.978;4.498;2023-07-29T02:43:23;100629.31;;;17.21;95.14
69784;BME280;57054;51.978;4.498;2023-07-29T02:45:48;100636.41;;;17.20;95.37
69784;BME280;57054;51.978;4.498;2023-07-29T02:48:13;100629.31;;;17.21;95.35
69784;BME280;57054;51.978;4.498;2023-07-29T02:50:39;100631.09;;;17.20;95.48
69784;BME280;57054;51.978;4.498;2023-07-29T02:53:04;100637.38;;;17.19;95.53
69784;BME280;57054;51.978;4.498;2023-07-29T02:55:30;100644.44;;;17.19;95.76
69784;BME280;57054;51.978;4.498;2023-07-29T02:57:55;100647.09;;;17.19;95.76
69784;BME280;57054;51.978;4.498;2023-07-29T03:00:21;100647.22;;;17.17;95.84
69784;BME280;57054;51.978;4.498;2023-07-29T03:02:46;100642.88;;;17.16;95.69
69784;BME280;57054;51.978;4.498;2023-07-29T03:05:11;100642.03;;;17.16;95.84
69784;BME280;57054;51.978;4.498;2023-07-29T03:07:37;100647.44;;;17.14;95.62
69784;BME280;57054;51.978;4.498;2023-07-29T03:10:03;100647.44;;;17.14;95.72
69784;BME280;57054;51.978;4.498;2023-07-29T03:12:28;100648.38;;;17.13;95.83
69784;BME280;57054;51.978;4.498;2023-07-29T03:14:54;100659.94;;;17.12;95.78
69784;BME280;57054;51.978;4.498;2023-07-29T03:17:19;100648.47;;;17.12;95.82
69784;BME280;57054;51.978;4.498;2023-07-29T03:19:45;100648.47;;;17.12;96.00
69784;BME280;57054;51.978;4.498;2023-07-29T03:22:10;100654.75;;;17.11;95.79
69784;BME280;57054;51.978;4.498;2023-07-29T03:24:35;100650.38;;;17.10;96.00
69784;BME280;57054;51.978;4.498;2023-07-29T03:27:01;100647.75;;;17.10;95.95
69784;BME280;57054;51.978;4.498;2023-07-29T03:29:26;100649.56;;;17.09;95.88
69784;BME280;57054;51.978;4.498;2023-07-29T03:31:51;100652.31;;;17.07;96.00
69784;BME280;57054;51.978;4.498;2023-07-29T03:34:17;100656.66;;;17.08;96.14
69784;BME280;57054;51.978;4.498;2023-07-29T03:36:42;100651.47;;;17.07;96.00
69784;BME280;57054;51.978;4.498;2023-07-29T03:39:08;100656.75;;;17.07;96.17
69784;BME280;57054;51.978;4.498;2023-07-29T03:41:33;100657.59;;;17.07;96.18
69784;BME280;57054;51.978;4.498;2023-07-29T03:43:59;100660.34;;;17.06;96.08
69784;BME280;57054;51.978;4.498;2023-07-29T03:46:24;100665.63;;;17.06;96.28
69784;BME280;57054;51.978;4.498;2023-07-29T03:48:50;100654.22;;;17.05;96.36
69784;BME280;57054;51.978;4.498;2023-07-29T03:51:15;100647.22;;;17.04;96.25
69784;BME280;57054;51.978;4.498;2023-07-29T03:53:40;100651.69;;;17.04;96.31
69784;BME280;57054;51.978;4.498;2023-07-29T03:56:07;100649.88;;;17.04;96.34
69784;BME280;57054;51.978;4.498;2023-07-29T03:58:32;100660.44;;;17.04;96.42
69784;BME280;57054;51.978;4.498;2023-07-29T04:00:57;100650.00;;;17.03;96.37
69784;BME280;57054;51.978;4.498;2023-07-29T04:03:23;100656.13;;;17.03;96.17
69784;BME280;57054;51.978;4.498;2023-07-29T04:05:48;100650.84;;;17.03;96.26
69784;BME280;57054;51.978;4.498;2023-07-29T04:08:14;100648.19;;;17.03;96.15
69784;BME280;57054;51.978;4.498;2023-07-29T04:10:39;100643.84;;;17.02;96.36
69784;BME280;57054;51.978;4.498;2023-07-29T04:13:05;100643.84;;;17.02;96.38
69784;BME280;57054;51.978;4.498;2023-07-29T04:15:30;100656.13;;;17.03;96.57
69784;BME280;57054;51.978;4.498;2023-07-29T04:17:56;100646.47;;;17.02;96.51
69784;BME280;57054;51.978;4.498;2023-07-29T04:20:21;100656.22;;;17.02;96.84
69784;BME280;57054;51.978;4.498;2023-07-29T04:22:46;100658.03;;;17.01;96.69
69784;BME280;57054;51.978;4.498;2023-07-29T04:25:12;100647.47;;;17.01;96.70
69784;BME280;57054;51.978;4.498;2023-07-29T04:27:38;100657.19;;;17.01;96.66
69784;BME280;57054;51.978;4.498;2023-07-29T04:30:04;100659.84;;;17.01;96.92
69784;BME280;57054;51.978;4.498;2023-07-29T04:32:29;100654.56;;;17.01;96.91
69784;BME280;57054;51.978;4.498;2023-07-29T04:34:55;100658.97;;;17.00;97.10
69784;BME280;57054;51.978;4.498;2023-07-29T04:37:20;100656.34;;;17.00;97.03
69784;BME280;57054;51.978;4.498;2023-07-29T04:39:46;100655.50;;;17.00;96.94
69784;BME280;57054;51.978;4.498;2023-07-29T04:42:12;100660.78;;;17.00;97.10
69784;BME280;57054;51.978;4.498;2023-07-29T04:44:37;100666.06;;;17.00;97.05
69784;BME280;57054;51.978;4.498;2023-07-29T04:47:02;100672.22;;;17.00;97.15
69784;BME280;57054;51.978;4.498;2023-07-29T04:49:28;100668.72;;;17.00;97.06
69784;BME280;57054;51.978;4.498;2023-07-29T04:51:53;100674.00;;;17.00;97.11
69784;BME280;57054;51.978;4.498;2023-07-29T04:54:19;100668.72;;;17.00;97.18
69784;BME280;57054;51.978;4.498;2023-07-29T04:56:46;100665.13;;;17.01;97.21
69784;BME280;57054;51.978;4.498;2023-07-29T04:59:11;100660.78;;;17.00;97.32
69784;BME280;57054;51.978;4.498;2023-07-29T05:01:38;100660.69;;;17.01;97.37
69784;BME280;57054;51.978;4.498;2023-07-29T05:04:04;100665.13;;;17.01;97.63
69784;BME280;57054;51.978;4.498;2023-07-29T05:06:29;100658.03;;;17.01;97.39
69784;BME280;57054;51.978;4.498;2023-07-29T05:08:56;100662.50;;;17.01;97.39
69784;BME280;57054;51.978;4.498;2023-07-29T05:11:22;100670.28;;;17.02;97.48
69784;BME280;57054;51.978;4.498;2023-07-29T05:13:47;100660.69;;;17.01;97.49
69784;BME280;57054;51.978;4.498;2023-07-29T05:16:12;100658.03;;;17.01;97.55
69784;BME280;57054;51.978;4.498;2023-07-29T05:18:38;100645.66;;;17.02;97.72
69784;BME280;57054;51.978;4.498;2023-07-29T05:21:03;100640.34;;;17.02;97.64
69784;BME280;57054;51.978;4.498;2023-07-29T05:23:28;100641.19;;;17.02;97.81
69784;BME280;57054;51.978;4.498;2023-07-29T05:25:54;100638.53;;;17.02;97.86
69784;BME280;57054;51.978;4.498;2023-07-29T05:28:19;100638.53;;;17.02;97.69
69784;BME280;57054;51.978;4.498;2023-07-29T05:30:44;100637.59;;;17.03;97.87
69784;BME280;57054;51.978;4.498;2023-07-29T05:33:10;100651.69;;;17.04;97.97
69784;BME280;57054;51.978;4.498;2023-07-29T05:35:35;100641.94;;;17.04;97.86
69784;BME280;57054;51.978;4.498;2023-07-29T05:38:01;100641.09;;;17.04;98.07
69784;BME280;57054;51.978;4.498;2023-07-29T05:40:26;100640.16;;;17.05;98.01
69784;BME280;57054;51.978;4.498;2023-07-29T05:42:51;100640.88;;;17.07;98.12
69784;BME280;57054;51.978;4.498;2023-07-29T05:45:17;100634.75;;;17.06;98.06
69784;BME280;57054;51.978;4.498;2023-07-29T05:47:42;100651.47;;;17.07;97.98
69784;BME280;57054;51.978;4.498;2023-07-29T05:50:08;100648.81;;;17.07;98.03
69784;BME280;57054;51.978;4.498;2023-07-29T05:52:34;100651.38;;;17.08;98.12
69784;BME280;57054;51.978;4.498;2023-07-29T05:55:00;100654.84;;;17.09;98.21
69784;BME280;57054;51.978;4.498;2023-07-29T05:57:25;100660.97;;;17.10;98.39
69784;BME280;57054;51.978;4.498;2023-07-29T05:59:51;100671.44;;;17.11;98.85
69784;BME280;57054;51.978;4.498;2023-07-29T06:02:16;100660.88;;;17.11;98.92
69784;BME280;57054;51.978;4.498;2023-07-29T06:04:41;100669.66;;;17.12;99.10
69784;BME280;57054;51.978;4.498;2023-07-29T06:07:07;100666.91;;;17.13;98.93
69784;BME280;57054;51.978;4.498;2023-07-29T06:09:32;100663.31;;;17.14;99.08
69784;BME280;57054;51.978;4.498;2023-07-29T06:11:58;100665.13;;;17.14;99.07
69784;BME280;57054;51.978;4.498;2023-07-29T06:14:23;100658.00;;;17.14;99.01
69784;BME280;57054;51.978;4.498;2023-07-29T06:16:49;100666.69;;;17.16;99.39
69784;BME280;57054;51.978;4.498;2023-07-29T06:19:14;100653.47;;;17.16;99.39
69784;BME280;57054;51.978;4.498;2023-07-29T06:21:39;100665.75;;;17.17;99.36
69784;BME280;57054;51.978;4.498;2023-07-29T06:24:05;100661.28;;;17.18;99.48
69784;BME280;57054;51.978;4.498;2023-07-29T06:26:30;100669.97;;;17.20;99.33
69784;BME280;57054;51.978;4.498;2023-07-29T06:28:55;100669.03;;;17.21;99.33
69784;BME280;57054;51.978;4.498;2023-07-29T06:31:22;100670.69;;;17.22;99.34
69784;BME280;57054;51.978;4.498;2023-07-29T06:33:47;100666.22;;;17.22;99.19
69784;BME280;57054;51.978;4.498;2023-07-29T06:36:13;100663.47;;;17.24;99.31
69784;BME280;57054;51.978;4.498;2023-07-29T06:38:39;100666.13;;;17.24;99.29
69784;BME280;57054;51.978;4.498;2023-07-29T06:41:04;100669.50;;;17.26;99.50
69784;BME280;57054;51.978;4.498;2023-07-29T06:43:30;100661.47;;;17.27;99.61
69784;BME280;57054;51.978;4.498;2023-07-29T06:45:55;100659.56;;;17.30;99.72
69784;BME280;57054;51.978;4.498;2023-07-29T06:48:21;100663.91;;;17.31;99.78
69784;BME280;57054;51.978;4.498;2023-07-29T06:50:47;100665.47;;;17.33;99.85
69784;BME280;57054;51.978;4.498;2023-07-29T06:53:12;100666.19;;;17.35;99.97
69784;BME280;57054;51.978;4.498;2023-07-29T06:55:37;100673.19;;;17.36;99.67
69784;BME280;57054;51.978;4.498;2023-07-29T06:58:03;100668.75;;;17.37;99.92
69784;BME280;57054;51.978;4.498;2023-07-29T07:00:28;100672.25;;;17.37;100.00
69784;BME280;57054;51.978;4.498;2023-07-29T07:02:54;100666.00;;;17.38;99.87
69784;BME280;57054;51.978;4.498;2023-07-29T07:05:19;100669.47;;;17.39;99.73
69784;BME280;57054;51.978;4.498;2023-07-29T07:07:45;100671.06;;;17.41;100.00
69784;BME280;57054;51.978;4.498;2023-07-29T07:10:10;100674.44;;;17.43;99.78
69784;BME280;57054;51.978;4.498;2023-07-29T07:12:36;100682.38;;;17.43;99.91
69784;BME280;57054;51.978;4.498;2023-07-29T07:15:01;100674.44;;;17.43;99.30
69784;BME280;57054;51.978;4.498;2023-07-29T07:17:27;100675.19;;;17.45;99.74
69784;BME280;57054;51.978;4.498;2023-07-29T07:19:52;100675.06;;;17.47;99.80
69784;BME280;57054;51.978;4.498;2023-07-29T07:22:17;100673.25;;;17.48;99.97
69784;BME280;57054;51.978;4.498;2023-07-29T07:24:43;100675.81;;;17.49;99.97
69784;BME280;57054;51.978;4.498;2023-07-29T07:27:09;100676.44;;;17.53;100.00
69784;BME280;57054;51.978;4.498;2023-07-29T07:29:34;100677.16;;;17.55;99.96
69784;BME280;57054;51.978;4.498;2023-07-29T07:32:00;100675.25;;;17.57;100.00
69784;BME280;57054;51.978;4.498;2023-07-29T07:34:25;100682.97;;;17.60;99.96
69784;BME280;57054;51.978;4.498;2023-07-29T07:36:51;100681.06;;;17.62;99.63
69784;BME280;57054;51.978;4.498;2023-07-29T07:39:16;100690.69;;;17.63;99.16
69784;BME280;57054;51.978;4.498;2023-07-29T07:41:42;100694.19;;;17.63;99.00
69784;BME280;57054;51.978;4.498;2023-07-29T07:44:08;100695.13;;;17.62;98.68
69784;BME280;57054;51.978;4.498;2023-07-29T07:46:33;100694.19;;;17.63;98.43
69784;BME280;57054;51.978;4.498;2023-07-29T07:48:58;100689.72;;;17.64;97.96
69784;BME280;57054;51.978;4.498;2023-07-29T07:51:24;100688.06;;;17.63;97.90
69784;BME280;57054;51.978;4.498;2023-07-29T07:53:49;100693.25;;;17.64;97.86
69784;BME280;57054;51.978;4.498;2023-07-29T07:56:15;100694.81;;;17.67;97.74
69784;BME280;57054;51.978;4.498;2023-07-29T07:58:40;100690.34;;;17.68;97.52
69784;BME280;57054;51.978;4.498;2023-07-29T08:01:07;100693.63;;;17.71;97.42
69784;BME280;57054;51.978;4.498;2023-07-29T08:03:34;100700.63;;;17.72;97.45
69784;BME280;57054;51.978;4.498;2023-07-29T08:05:59;100698.59;;;17.76;97.32
69784;BME280;57054;51.978;4.498;2023-07-29T08:08:26;100705.47;;;17.78;97.21
69784;BME280;57054;51.978;4.498;2023-07-29T08:10:53;100703.53;;;17.80;96.82
69784;BME280;57054;51.978;4.498;2023-07-29T08:13:19;100709.72;;;17.81;96.45
69784;BME280;57054;51.978;4.498;2023-07-29T08:15:48;100706.09;;;17.82;96.37
69784;BME280;57054;51.978;4.498;2023-07-29T08:18:14;100720.16;;;17.82;96.21
69784;BME280;57054;51.978;4.498;2023-07-29T08:20:39;100714.75;;;17.84;96.01
69784;BME280;57054;51.978;4.498;2023-07-29T08:23:05;100712.09;;;17.84;95.54
69784;BME280;57054;51.978;4.498;2023-07-29T08:25:30;100712.97;;;17.84;95.56
69784;BME280;57054;51.978;4.498;2023-07-29T08:27:56;100708.56;;;17.85;95.55
69784;BME280;57054;51.978;4.498;2023-07-29T08:30:22;100704.09;;;17.86;95.37
69784;BME280;57054;51.978;4.498;2023-07-29T08:32:47;100712.03;;;17.86;95.23
69784;BME280;57054;51.978;4.498;2023-07-29T08:35:13;100719.97;;;17.86;95.23
69784;BME280;57054;51.978;4.498;2023-07-29T08:37:38;100719.97;;;17.86;95.51
69784;BME280;57054;51.978;4.498;2023-07-29T08:40:04;100719.16;;;17.85;95.53
69784;BME280;57054;51.978;4.498;2023-07-29T08:42:31;100719.97;;;17.86;96.03
69784;BME280;57054;51.978;4.498;2023-07-29T08:45:01;100719.03;;;17.87;96.15
69784;BME280;57054;51.978;4.498;2023-07-29T08:47:31;100726.97;;;17.87;96.27
69784;BME280;57054;51.978;4.498;2023-07-29T08:49:57;100719.88;;;17.87;96.40
69784;BME280;57054;51.978;4.498;2023-07-29T08:52:24;100717.22;;;17.87;96.48
69784;BME280;57054;51.978;4.498;2023-07-29T08:54:51;100716.38;;;17.87;96.52
69784;BME280;57054;51.978;4.498;2023-07-29T08:57:18;100720.81;;;17.86;96.50
69784;BME280;57054;51.978;4.498;2023-07-29T08:59:45;100714.47;;;17.89;96.59
69784;BME280;57054;51.978;4.498;2023-07-29T09:02:11;100722.41;;;17.89;96.55
69784;BME280;57054;51.978;4.498;2023-07-29T09:04:36;100723.34;;;17.88;96.74
69784;BME280;57054;51.978;4.498;2023-07-29T09:07:02;100719.75;;;17.89;96.81
69784;BME280;57054;51.978;4.498;2023-07-29T09:09:27;100724.97;;;17.90;97.10
69784;BME280;57054;51.978;4.498;2023-07-29T09:11:53;100725.78;;;17.91;97.10
69784;BME280;57054;51.978;4.498;2023-07-29T09:14:19;100726.41;;;17.94;97.06
69784;BME280;57054;51.978;4.498;2023-07-29T09:16:45;100720.13;;;17.95;96.95
69784;BME280;57054;51.978;4.498;2023-07-29T09:19:11;100727.97;;;17.97;96.82
69784;BME280;57054;51.978;4.498;2023-07-29T09:21:41;100719.09;;;17.98;96.80
69784;BME280;57054;51.978;4.498;2023-07-29T09:24:07;100721.75;;;17.98;96.57
69784;BME280;57054;51.978;4.498;2023-07-29T09:26:33;100725.13;;;18.00;96.51
69784;BME280;57054;51.978;4.498;2023-07-29T09:28:59;100734.78;;;18.01;96.67
69784;BME280;57054;51.978;4.498;2023-07-29T09:31:26;100731.16;;;18.02;96.78
69784;BME280;57054;51.978;4.498;2023-07-29T09:34:00;100735.50;;;18.03;96.38
69784;BME280;57054;51.978;4.498;2023-07-29T09:36:26;100721.28;;;18.04;96.40
69784;BME280;57054;51.978;4.498;2023-07-29T09:38:55;100714.19;;;18.05;96.46
69784;BME280;57054;51.978;4.498;2023-07-29T09:41:28;100719.34;;;18.06;96.50
69784;BME280;57054;51.978;4.498;2023-07-29T09:43:58;100723.72;;;18.07;96.70
69784;BME280;57054;51.978;4.498;2023-07-29T09:46:25;100730.72;;;18.08;96.68
69784;BME280;57054;51.978;4.498;2023-07-29T09:48:56;100724.53;;;18.08;96.68
69784;BME280;57054;51.978;4.498;2023-07-29T09:51:22;100719.13;;;18.09;96.58
69784;BME280;57054;51.978;4.498;2023-07-29T09:53:48;100715.53;;;18.10;96.74
69784;BME280;57054;51.978;4.498;2023-07-29T09:56:15;100714.56;;;18.11;96.81
69784;BME280;57054;51.978;4.498;2023-07-29T09:58:43;100713.50;;;18.14;96.59
69784;BME280;57054;51.978;4.498;2023-07-29T10:01:09;100710.72;;;18.15;96.82
69784;BME280;57054;51.978;4.498;2023-07-29T10:03:35;100717.81;;;18.15;97.01
69784;BME280;57054;51.978;4.498;2023-07-29T10:06:05;100718.56;;;18.17;97.04
69784;BME280;57054;51.978;4.498;2023-07-29T10:08:31;100717.59;;;18.18;96.82
69784;BME280;57054;51.978;4.498;2023-07-29T10:11:01;100726.41;;;18.18;97.07
69784;BME280;57054;51.978;4.498;2023-07-29T10:13:27;100733.41;;;18.19;96.73
69784;BME280;57054;51.978;4.498;2023-07-29T10:15:56;100742.19;;;18.20;96.73
69784;BME280;57054;51.978;4.498;2023-07-29T10:18:23;100739.53;;;18.20;96.95
69784;BME280;57054;51.978;4.498;2023-07-29T10:20:50;100751.09;;;18.19;97.15
69784;BME280;57054;51.978;4.498;2023-07-29T10:23:17;100753.75;;;18.19;97.33
69784;BME280;57054;51.978;4.498;2023-07-29T10:25:47;100747.59;;;18.18;97.08
69784;BME280;57054;51.978;4.498;2023-07-29T10:28:17;100748.56;;;18.17;97.29
69784;BME280;57054;51.978;4.498;2023-07-29T10:30:44;100748.56;;;18.17;97.55
69784;BME280;57054;51.978;4.498;2023-07-29T10:33:10;100751.34;;;18.16;97.57
69784;BME280;57054;51.978;4.498;2023-07-29T10:35:36;100750.47;;;18.15;97.59
69784;BME280;57054;51.978;4.498;2023-07-29T10:38:03;100754.09;;;18.14;97.67
69784;BME280;57054;51.978;4.498;2023-07-29T10:40:49;100754.94;;;18.15;97.90
69784;BME280;57054;51.978;4.498;2023-07-29T10:43:40;100748.78;;;18.14;98.12
69784;BME280;57054;51.978;4.498;2023-07-29T10:46:21;100752.28;;;18.15;98.24
69784;BME280;57054;51.978;4.498;2023-07-29T10:51:35;100754.09;;;18.14;98.70
69784;BME280;57054;51.978;4.498;2023-07-29T10:54:12;100749.63;;;18.15;98.88
69784;BME280;57054;51.978;4.498;2023-07-29T10:56:42;100741.69;;;18.15;99.23
69784;BME280;57054;51.978;4.498;2023-07-29T11:01:38;100740.63;;;18.17;100.00
69784;BME280;57054;51.978;4.498;2023-07-29T11:12:42;100732.72;;;18.29;100.00
69784;BME280;57054;51.978;4.498;2023-07-29T11:17:44;100730.44;;;18.35;100.00
69784;BME280;57054;51.978;4.498;2023-07-29T11:20:11;100722.25;;;18.38;100.00
69784;BME280;57054;51.978;4.498;2023-07-29T11:22:37;100724.69;;;18.41;100.00
69784;BME280;57054;51.978;4.498;2023-07-29T11:25:03;100728.06;;;18.44;100.00
69784;BME280;57054;51.978;4.498;2023-07-29T11:27:28;100724.47;;;18.45;100.00
69784;BME280;57054;51.978;4.498;2023-07-29T11:29:58;100724.31;;;18.46;100.00
69784;BME280;57054;51.978;4.498;2023-07-29T11:32:24;100733.03;;;18.48;100.00
69784;BME280;57054;51.978;4.498;2023-07-29T11:34:50;100726.75;;;18.49;100.00
69784;BME280;57054;51.978;4.498;2023-07-29T11:37:16;100734.69;;;18.49;100.00
69784;BME280;57054;51.978;4.498;2023-07-29T11:39:43;100734.69;;;18.49;100.00
69784;BME280;57054;51.978;4.498;2023-07-29T11:42:13;100734.59;;;18.51;100.00
69784;BME280;57054;51.978;4.498;2023-07-29T11:44:38;100740.72;;;18.51;100.00
69784;BME280;57054;51.978;4.498;2023-07-29T11:47:08;100733.59;;;18.52;100.00
69784;BME280;57054;51.978;4.498;2023-07-29T11:49:34;100742.31;;;18.54;100.00
69784;BME280;57054;51.978;4.498;2023-07-29T11:52:00;100743.16;;;18.54;100.00
69784;BME280;57054;51.978;4.498;2023-07-29T11:54:26;100743.88;;;18.56;100.00
69784;BME280;57054;51.978;4.498;2023-07-29T11:56:51;100743.78;;;18.58;100.00
69784;BME280;57054;51.978;4.498;2023-07-29T11:59:17;100733.16;;;18.58;100.00
69784;BME280;57054;51.978;4.498;2023-07-29T12:01:42;100742.69;;;18.60;100.00
69784;BME280;57054;51.978;4.498;2023-07-29T12:04:08;100734.59;;;18.62;100.00
69784;BME280;57054;51.978;4.498;2023-07-29T12:06:34;100738.84;;;18.65;100.00
69784;BME280;57054;51.978;4.498;2023-07-29T12:09:00;100723.78;;;18.65;100.00
69784;BME280;57054;51.978;4.498;2023-07-29T12:11:26;100728.84;;;18.68;100.00
69784;BME280;57054;51.978;4.498;2023-07-29T12:13:53;100726.06;;;18.70;100.00
69784;BME280;57054;51.978;4.498;2023-07-29T12:16:18;100724.13;;;18.72;99.79
69784;BME280;57054;51.978;4.498;2023-07-29T12:18:44;100725.00;;;18.72;99.84
69784;BME280;57054;51.978;4.498;2023-07-29T12:21:09;100717.03;;;18.72;99.53
69784;BME280;57054;51.978;4.498;2023-07-29T12:23:35;100722.09;;;18.75;99.90
69784;BME280;57054;51.978;4.498;2023-07-29T12:26:01;100736.94;;;18.78;99.65
69784;BME280;57054;51.978;4.498;2023-07-29T12:28:26;100726.22;;;18.79;99.50
69784;BME280;57054;51.978;4.498;2023-07-29T12:30:55;100729.63;;;18.82;99.32
69784;BME280;57054;51.978;4.498;2023-07-29T12:33:35;100734.94;;;18.82;99.09
69784;BME280;57054;51.978;4.498;2023-07-29T12:36:02;100727.81;;;18.82;98.82
69784;BME280;57054;51.978;4.498;2023-07-29T12:38:28;100716.13;;;18.85;98.74
69784;BME280;57054;51.978;4.498;2023-07-29T12:40:54;100717.81;;;18.86;98.79
69784;BME280;57054;51.978;4.498;2023-07-29T12:43:20;100722.03;;;18.88;98.41
69784;BME280;57054;51.978;4.498;2023-07-29T12:45:45;100715.75;;;18.89;98.12
69784;BME280;57054;51.978;4.498;2023-07-29T12:48:11;100722.88;;;18.89;97.63
69784;BME280;57054;51.978;4.498;2023-07-29T12:50:37;100723.59;;;18.91;97.64
69784;BME280;57054;51.978;4.498;2023-07-29T12:53:06;100723.50;;;18.92;97.69
69784;BME280;57054;51.978;4.498;2023-07-29T12:55:31;100727.81;;;18.93;97.43
69784;BME280;57054;51.978;4.498;2023-07-29T12:57:57;100722.50;;;18.93;97.15
69784;BME280;57054;51.978;4.498;2023-07-29T13:00:23;100727.81;;;18.93;96.60
69784;BME280;57054;51.978;4.498;2023-07-29T13:02:48;100728.78;;;18.92;96.51
69784;BME280;57054;51.978;4.498;2023-07-29T13:05:14;100732.28;;;18.93;96.35
69784;BME280;57054;51.978;4.498;2023-07-29T13:07:40;100736.66;;;18.94;96.35
69784;BME280;57054;51.978;4.498;2023-07-29T13:10:06;100732.16;;;18.94;95.65